Time;durP1;ratioP1;P1;durP2;ratioP2;P2;SDS_P1;SDS_P2;PMS_P1;PMS_P2;Temp;Humidity;BMP_temperature;BMP_pressure;BME280_temperature;BME280_humidity;BME280_pressure;Samples;Min_cycle;Max_cycle;Signal;HPM_P1;HPM_P2
2022/06/02 00:00:53;;;;;;;9.52;2.20;;;20.50;94.70;;;;;;5053122;28;20048;-71
2022/06/02 00:04:00;;;;;;;7.88;1.80;;;20.50;94.80;;;;;;5053778;28;20048;-71
2022/06/02 00:07:12;;;;;;;19.02;2.03;;;20.50;94.80;;;;;;5053626;28;20047;-71
2022/06/02 00:10:35;;;;;;;;;;;20.50;94.90;;;;;;5034309;28;20060;-71
2022/06/02 00:13:56;;;;;;;3.95;1.85;;;20.50;95.00;;;;;;5044624;28;20381;-72
2022/06/02 00:17:20;;;;;;;6.85;2.30;;;20.50;95.20;;;;;;5052785;28;20051;-72
2022/06/02 00:20:34;;;;;;;6.43;2.53;;;20.50;95.30;;;;;;5052075;28;20036;-72
2022/06/02 00:23:53;;;;;;;6.50;2.10;;;20.40;95.40;;;;;;5052002;28;20040;-71
2022/06/02 00:26:57;;;;;;;6.53;1.80;;;20.50;95.40;;;;;;5052260;28;20506;-71
2022/06/02 00:30:07;;;;;;;4.47;1.98;;;20.60;95.80;;;;;;5053264;28;20120;-72
2022/06/02 00:33:28;;;;;;;5.10;2.05;;;20.60;95.60;;;;;;5032553;28;20399;-72
2022/06/02 00:36:49;;;;;;;6.25;2.40;;;20.60;95.70;;;;;;5047527;28;20387;-72
2022/06/02 00:39:55;;;;;;;7.70;2.83;;;20.60;95.90;;;;;;5052676;28;20036;-72
2022/06/02 00:43:31;;;;;;;6.40;2.50;;;20.60;96.10;;;;;;5052900;28;20044;-72
2022/06/02 00:46:35;;;;;;;3.85;2.05;;;20.40;96.90;;;;;;5052910;28;20047;-72
2022/06/02 00:50:12;;;;;;;6.32;2.72;;;20.10;97.50;;;;;;5052575;28;20056;-72
2022/06/02 00:53:19;;;;;;;4.82;2.80;;;19.80;97.90;;;;;;5052404;28;20530;-72
2022/06/02 01:00:30;;;;;;;7.82;2.60;;;19.20;99.60;;;;;;5032485;28;20400;-72
2022/06/02 01:03:43;;;;;;;6.75;3.15;;;19.10;99.90;;;;;;5049160;28;20055;-72
2022/06/02 01:07:15;;;;;;;11.40;3.08;;;19.00;99.90;;;;;;5051705;28;20510;-72
2022/06/02 01:10:31;;;;;;;7.43;2.90;;;19.00;99.90;;;;;;5052495;28;20538;-72
2022/06/02 01:13:42;;;;;;;7.72;2.95;;;18.90;99.90;;;;;;5033009;28;20040;-72
2022/06/02 01:17:15;;;;;;;4.60;2.38;;;19.00;99.90;;;;;;5051825;28;20044;-72
2022/06/02 01:20:29;;;;;;;8.60;2.72;;;19.00;99.90;;;;;;5051957;28;20044;-72
2022/06/02 01:23:58;;;;;;;5.30;2.90;;;18.90;99.90;;;;;;5052047;28;20478;-72
2022/06/02 01:27:27;;;;;;;8.30;3.38;;;18.90;99.90;;;;;;5032125;28;20048;-72
2022/06/02 01:30:37;;;;;;;11.82;3.33;;;18.80;99.90;;;;;;5050669;28;20411;-72
2022/06/02 01:34:09;;;;;;;9.32;3.28;;;18.80;99.90;;;;;;5051274;28;20044;-72
2022/06/02 01:37:46;;;;;;;8.73;3.08;;;18.70;99.90;;;;;;5051750;28;20051;-72
2022/06/02 01:41:10;;;;;;;9.02;3.47;;;18.70;99.90;;;;;;5031649;28;20048;-72
2022/06/02 01:44:27;;;;;;;12.13;3.42;;;18.60;99.90;;;;;;5051179;28;20052;-71
2022/06/02 01:47:37;;;;;;;13.15;3.25;;;18.60;99.90;;;;;;5051055;28;20052;-72
2022/06/02 01:50:58;;;;;;;7.88;3.13;;;18.50;99.90;;;;;;5051414;28;20055;-72
2022/06/02 01:54:02;;;;;;;8.95;3.35;;;18.50;99.90;;;;;;5051517;28;20155;-72
2022/06/02 01:57:37;;;;;;;9.07;3.47;;;18.50;99.90;;;;;;5045820;28;20044;-72
2022/06/02 02:00:43;;;;;;;11.65;3.40;;;18.50;99.90;;;;;;5050583;28;20064;-72
2022/06/02 02:04:03;;;;;;;10.48;3.65;;;18.50;99.90;;;;;;5051326;28;20112;-72
2022/06/02 02:07:58;;;;;;;13.02;4.35;;;18.40;99.90;;;;;;5030924;28;20399;-72
2022/06/02 02:11:11;;;;;;;8.88;3.50;;;18.30;99.90;;;;;;5049791;28;20052;-72
2022/06/02 02:14:21;;;;;;;8.38;3.88;;;18.30;99.90;;;;;;5051040;28;20044;-72
2022/06/02 02:17:59;;;;;;;8.02;3.67;;;18.30;99.90;;;;;;5050647;28;20399;-72
2022/06/02 02:21:36;;;;;;;10.15;3.97;;;18.20;99.90;;;;;;5031552;28;20068;-72
2022/06/02 02:25:01;;;;;;;9.95;4.28;;;18.20;99.90;;;;;;4983583;28;20060;-72
2022/06/02 02:28:43;;;;;;;11.48;4.60;;;18.10;99.90;;;;;;5047799;28;20052;-72
2022/06/02 02:32:34;;;;;;;10.48;4.65;;;18.00;99.90;;;;;;5050407;28;20048;-72
2022/06/02 02:35:53;;;;;;;10.93;4.35;;;17.90;99.90;;;;;;5050782;28;20044;-72
2022/06/02 02:39:14;;;;;;;12.73;5.25;;;17.80;99.90;;;;;;5050942;28;20040;-72
2022/06/02 02:42:24;;;;;;;9.50;4.60;;;17.60;99.90;;;;;;5050358;28;20391;-72
2022/06/02 02:45:53;;;;;;;10.20;4.72;;;17.60;99.90;;;;;;5050341;28;20051;-72
2022/06/02 02:49:25;;;;;;;12.38;4.55;;;17.50;99.90;;;;;;5050659;28;20052;-72
2022/06/02 02:52:48;;;;;;;10.80;5.25;;;17.40;99.90;;;;;;5050511;28;20036;-72
2022/06/02 02:56:12;;;;;;;11.07;5.63;;;17.20;99.90;;;;;;5049105;28;20040;-72
2022/06/02 02:59:31;;;;;;;19.05;5.72;;;17.10;99.90;;;;;;5050130;28;20048;-72
2022/06/02 03:03:16;;;;;;;15.45;6.15;;;17.10;99.90;;;;;;5050076;28;20048;-72
2022/06/02 03:06:31;;;;;;;11.75;6.50;;;17.10;99.90;;;;;;5050176;28;20056;-72
2022/06/02 03:09:41;;;;;;;13.48;6.28;;;17.10;99.90;;;;;;5030440;28;20052;-71
2022/06/02 03:13:12;;;;;;;13.23;6.47;;;17.10;99.90;;;;;;5046008;28;20048;-72
2022/06/02 03:16:19;;;;;;;12.60;6.03;;;17.10;99.90;;;;;;5049652;28;20518;-72
2022/06/02 03:19:54;;;;;;;13.40;7.57;;;17.00;99.90;;;;;;5050112;28;20048;-72
2022/06/02 03:22:57;;;;;;;19.15;7.85;;;17.00;99.90;;;;;;5050507;28;20386;-72
2022/06/02 03:26:14;;;;;;;21.27;7.75;;;17.00;99.90;;;;;;5049503;28;20044;-72
2022/06/02 03:29:34;;;;;;;13.70;7.10;;;17.00;99.90;;;;;;5050273;28;20052;-72
2022/06/02 03:33:05;;;;;;;19.42;7.53;;;17.00;99.90;;;;;;5050177;28;20044;-72
2022/06/02 03:36:21;;;;;;;15.73;7.68;;;17.00;99.90;;;;;;5049379;28;20040;-72
2022/06/02 03:39:25;;;;;;;15.68;7.80;;;16.90;99.90;;;;;;5049743;28;20040;-72
2022/06/02 03:42:58;;;;;;;14.00;7.32;;;16.90;99.90;;;;;;5050056;28;20048;-72
2022/06/02 03:46:12;;;;;;;14.70;8.35;;;17.00;99.90;;;;;;5030037;28;20048;-72
2022/06/02 03:49:29;;;;;;;22.05;7.93;;;17.00;99.90;;;;;;5046317;28;20043;-72
2022/06/02 03:52:56;;;;;;;19.13;7.00;;;17.00;99.90;;;;;;5049552;28;20048;-72
2022/06/02 03:56:00;;;;;;;12.45;6.63;;;17.00;99.90;;;;;;5052152;28;20514;-72
2022/06/02 03:59:17;;;;;;;13.00;6.30;;;17.10;99.90;;;;;;5053884;28;20394;-72
2022/06/02 04:02:31;;;;;;;9.27;5.50;;;17.10;99.90;;;;;;5053290;28;20052;-71
2022/06/02 04:05:41;;;;;;;10.88;5.20;;;17.20;99.90;;;;;;5053245;28;20044;-72
2022/06/02 04:09:13;;;;;;;10.73;5.20;;;17.30;99.90;;;;;;5051926;28;20056;-72
2022/06/02 04:16:27;;;;;;;14.85;5.25;;;17.50;99.90;;;;;;5047329;28;20060;-72
2022/06/02 04:23:37;;;;;;;14.40;4.57;;;17.60;99.90;;;;;;5051536;28;20534;-72
2022/06/02 04:27:08;;;;;;;12.25;4.93;;;17.70;99.90;;;;;;5052007;28;20040;-73
2022/06/02 04:30:47;;;;;;;20.65;6.35;;;18.10;99.90;;;;;;5032552;28;20052;-72
2022/06/02 04:34:17;;;;;;;12.40;5.30;;;19.40;99.90;;;;;;5051741;28;20397;-72
2022/06/02 04:37:39;;;;;;;14.93;5.60;;;21.10;99.90;;;;;;5050733;28;20142;-73
2022/06/02 04:40:50;;;;;;;15.98;5.15;;;22.30;99.90;;;;;;5052207;28;20048;-72
2022/06/02 04:44:07;;;;;;;14.43;4.90;;;23.10;99.90;;;;;;5032239;28;20104;-72
2022/06/02 04:47:25;;;;;;;14.73;5.30;;;24.80;99.90;;;;;;5049917;28;20048;-72
2022/06/02 04:50:41;;;;;;;14.32;6.00;;;25.70;99.90;;;;;;5051317;28;20046;-72
2022/06/02 04:54:09;;;;;;;12.65;4.95;;;25.80;99.90;;;;;;5051342;28;20044;-72
2022/06/02 04:57:44;;;;;;;12.13;6.35;;;25.70;99.90;;;;;;5051360;28;20040;-72
2022/06/02 05:00:57;;;;;;;10.85;4.80;;;25.30;99.90;;;;;;5051390;28;20067;-72
2022/06/02 05:04:33;;;;;;;10.90;3.95;;;26.00;99.90;;;;;;5051471;28;20530;-72
2022/06/02 05:08:17;;;;;;;10.02;3.67;;;27.30;99.90;;;;;;5050905;28;20043;-72
2022/06/02 05:11:34;;;;;;;9.38;4.00;;;28.50;99.90;;;;;;5031543;28;20068;-72
2022/06/02 05:15:04;;;;;;;8.48;4.20;;;28.60;99.90;;;;;;5051385;28;20040;-72
2022/06/02 05:18:23;;;;;;;15.45;4.00;;;28.90;99.90;;;;;;5050189;28;20036;-72
2022/06/02 05:21:33;;;;;;;8.55;3.85;;;29.50;99.90;;;;;;5050637;28;20048;-72
2022/06/02 05:25:02;;;;;;;9.85;4.00;;;29.10;99.60;;;;;;5051442;28;20054;-73
2022/06/02 05:28:43;;;;;;;11.57;4.25;;;28.10;99.90;;;;;;5050656;28;20502;-73
2022/06/02 05:32:17;;;;;;;13.30;4.28;;;28.40;99.90;;;;;;5050333;28;20395;-70
2022/06/02 05:35:41;;;;;;;11.55;3.92;;;27.10;99.90;;;;;;5049897;28;20044;-70
2022/06/02 05:38:55;;;;;;;9.20;4.35;;;26.50;99.90;;;;;;5051054;28;20040;-71
2022/06/02 05:42:06;;;;;;;11.82;3.90;;;26.60;99.90;;;;;;5031479;28;20044;-70
2022/06/02 05:45:22;;;;;;;12.55;4.95;;;25.90;99.90;;;;;;5047428;28;20040;-70
2022/06/02 05:48:56;;;;;;;11.73;4.45;;;24.00;99.90;;;;;;5049879;28;20052;-70
2022/06/02 05:52:16;;;;;;;13.38;4.15;;;23.00;99.90;;;;;;5050858;28;20040;-72
2022/06/02 05:55:29;;;;;;;7.72;4.07;;;23.40;99.90;;;;;;5031692;28;20044;-72
2022/06/02 05:59:11;;;;;;;8.40;3.72;;;24.70;99.90;;;;;;5046914;28;20032;-72
2022/06/02 06:02:36;;;;;;;8.73;3.95;;;25.80;99.90;;;;;;5043472;28;20048;-73
2022/06/02 06:05:50;;;;;;;8.90;3.33;;;26.90;99.90;;;;;;5050293;28;20097;-73
2022/06/02 06:09:14;;;;;;;9.85;3.80;;;26.80;99.90;;;;;;5030633;28;20048;-73
2022/06/02 06:12:40;;;;;;;11.55;5.63;;;27.80;99.90;;;;;;5048755;28;20044;-73
2022/06/02 06:16:09;;;;;;;14.70;4.82;;;27.40;99.90;;;;;;5049708;28;20044;-73
2022/06/02 06:19:32;;;;;;;10.65;4.90;;;26.80;99.90;;;;;;5049442;28;20047;-73
2022/06/02 06:23:00;;;;;;;10.93;4.72;;;26.60;99.90;;;;;;5050476;28;20380;-73
2022/06/02 06:26:28;;;;;;;9.57;3.90;;;26.60;99.90;;;;;;5046567;28;20047;-73
2022/06/02 06:29:50;;;;;;;10.38;4.32;;;26.40;99.90;;;;;;5049365;28;20052;-72
2022/06/02 06:33:21;;;;;;;14.10;3.58;;;27.10;99.90;;;;;;5049543;28;20051;-72
2022/06/02 06:37:16;;;;;;;14.27;3.60;;;27.20;99.50;;;;;;5029846;28;20413;-72
2022/06/02 06:41:12;;;;;;;11.60;3.33;;;27.70;98.60;;;;;;4949105;29;20046;-72
2022/06/02 06:44:46;;;;;;;9.23;3.33;;;28.10;98.20;;;;;;4995265;28;20048;-73
2022/06/02 06:47:58;;;;;;;6.00;2.95;;;28.20;97.70;;;;;;5043239;28;20047;-73
2022/06/02 06:51:19;;;;;;;7.60;3.80;;;29.30;97.40;;;;;;5049261;28;20048;-73
2022/06/02 06:55:01;;;;;;;12.20;3.20;;;29.90;96.40;;;;;;5049754;28;20048;-73
2022/06/02 06:58:24;;;;;;;7.45;3.33;;;27.80;97.20;;;;;;5029463;28;20057;-73
2022/06/02 07:01:49;;;;;;;7.85;4.07;;;29.10;96.90;;;;;;5047317;28;20063;-73
2022/06/02 07:05:21;;;;;;;9.88;4.38;;;30.50;95.60;;;;;;5049045;28;20044;-73
2022/06/02 07:08:33;;;;;;;7.30;4.32;;;31.10;95.00;;;;;;5049500;28;20044;-71
2022/06/02 07:15:28;;;;;;;8.55;3.63;;;31.20;94.30;;;;;;5049108;28;20490;-71
2022/06/02 07:19:04;;;;;;;7.65;4.25;;;32.10;93.70;;;;;;5048774;28;20041;-71
2022/06/02 07:22:37;;;;;;;9.88;4.20;;;30.60;93.90;;;;;;5049265;28;20056;-73
2022/06/02 07:25:57;;;;;;;10.43;4.97;;;29.90;94.90;;;;;;5044755;28;20036;-73
2022/06/02 07:29:19;;;;;;;10.15;4.70;;;28.80;95.10;;;;;;5047609;28;20051;-73
2022/06/02 07:33:03;;;;;;;9.35;4.75;;;29.50;95.80;;;;;;5052595;28;20044;-73
2022/06/02 07:36:44;;;;;;;10.13;5.20;;;30.30;94.30;;;;;;5052568;28;20056;-71
2022/06/02 07:40:22;;;;;;;11.50;4.78;;;32.20;93.30;;;;;;5052920;28;20052;-72
2022/06/02 07:44:08;;;;;;;10.05;5.43;;;30.90;93.30;;;;;;5033554;28;20053;-73
2022/06/02 07:47:41;;;;;;;11.63;5.40;;;32.90;92.40;;;;;;5033001;28;20498;-73
2022/06/02 07:50:55;;;;;;;8.82;5.28;;;33.80;91.90;;;;;;5050941;28;20048;-73
2022/06/02 07:54:27;;;;;;;10.13;5.90;;;35.40;90.20;;;;;;5052533;28;20064;-73
2022/06/02 07:57:56;;;;;;;10.93;5.57;;;36.10;89.20;;;;;;5052389;28;20064;-73
2022/06/02 08:01:08;;;;;;;10.65;4.72;;;37.00;87.70;;;;;;5052580;28;20056;-71
2022/06/02 08:04:35;;;;;;;10.55;4.60;;;36.80;86.40;;;;;;5051761;28;20053;-71
2022/06/02 08:07:44;;;;;;;9.77;4.47;;;36.10;85.20;;;;;;5051707;28;20052;-71
2022/06/02 08:11:07;;;;;;;14.03;3.93;;;34.70;87.00;;;;;;5052638;28;20044;-71
2022/06/02 08:14:45;;;;;;;9.13;4.07;;;35.60;86.70;;;;;;5033069;28;20356;-71
2022/06/02 08:17:56;;;;;;;10.25;3.70;;;36.30;86.00;;;;;;5051764;28;20055;-71
2022/06/02 08:21:16;;;;;;;9.30;3.55;;;32.40;89.50;;;;;;5051525;28;20044;-71
2022/06/02 08:24:54;;;;;;;11.05;3.15;;;33.70;88.00;;;;;;5052655;28;20235;-71
2022/06/02 08:28:07;;;;;;;7.97;2.60;;;35.20;88.60;;;;;;5032344;28;20388;-72
2022/06/02 08:31:52;;;;;;;13.75;3.00;;;33.30;88.90;;;;;;5050731;28;20040;-70
2022/06/02 08:35:04;;;;;;;9.10;3.25;;;35.80;87.50;;;;;;4978438;28;20046;-73
2022/06/02 08:38:24;;;;;;;11.38;2.97;;;35.20;85.80;;;;;;4992539;28;20066;-73
2022/06/02 08:41:44;;;;;;;7.88;2.47;;;36.00;85.80;;;;;;5047709;28;20795;-71
2022/06/02 08:44:57;;;;;;;11.38;3.20;;;36.10;85.80;;;;;;5052043;28;20052;-73
2022/06/02 08:48:04;;;;;;;6.38;2.30;;;35.40;83.80;;;;;;5051083;28;20399;-71
2022/06/02 08:51:43;;;;;;;7.90;2.53;;;37.00;83.60;;;;;;5051994;28;20036;-73
2022/06/02 08:55:05;;;;;;;4.78;2.42;;;35.30;86.40;;;;;;5052574;28;20061;-73
2022/06/02 08:58:36;;;;;;;7.57;2.22;;;36.20;84.60;;;;;;5051156;28;20275;-73
2022/06/02 09:01:59;;;;;;;7.20;2.47;;;37.10;82.00;;;;;;5051354;28;20047;-73
2022/06/02 09:05:12;;;;;;;6.80;2.05;;;37.30;81.50;;;;;;5051939;28;20550;-73
2022/06/02 09:08:35;;;;;;;4.25;1.73;;;34.70;81.80;;;;;;5051601;28;20384;-73
2022/06/02 09:11:51;;;;;;;8.50;2.28;;;37.60;79.90;;;;;;5050892;28;20037;-74
2022/06/02 09:15:16;;;;;;;5.97;2.42;;;39.60;77.90;;;;;;5050247;28;20048;-74
2022/06/02 09:18:58;;;;;;;9.00;2.60;;;39.20;79.10;;;;;;5051065;28;20044;-73
2022/06/02 09:22:12;;;;;;;9.82;2.22;;;38.70;75.40;;;;;;5051670;28;20529;-74
2022/06/02 09:25:25;;;;;;;11.93;2.63;;;38.40;76.40;;;;;;5047951;28;20052;-73
2022/06/02 09:28:51;;;;;;;7.53;2.22;;;37.00;78.00;;;;;;5050526;28;20055;-73
2022/06/02 09:32:17;;;;;;;9.40;2.60;;;37.80;80.50;;;;;;5051122;28;20044;-74
2022/06/02 09:35:34;;;;;;;7.93;2.33;;;37.70;78.20;;;;;;5051303;28;20080;-74
2022/06/02 09:39:24;;;;;;;13.25;2.30;;;37.80;79.00;;;;;;5046153;28;20036;-74
2022/06/02 09:42:54;;;;;;;6.85;2.30;;;41.00;75.90;;;;;;5042975;28;20051;-75
2022/06/02 09:46:23;;;;;;;8.43;1.80;;;39.00;75.30;;;;;;5050543;28;20052;-72
2022/06/02 09:49:51;;;;;;;7.10;2.08;;;41.40;73.50;;;;;;5051305;28;20048;-75
2022/06/02 09:53:40;;;;;;;7.05;1.80;;;42.90;72.40;;;;;;5029413;28;20415;-70
2022/06/02 09:57:55;;;;;;;10.85;2.70;;;37.60;73.60;;;;;;5025401;28;20140;-72
2022/06/02 10:01:11;;;;;;;5.93;2.50;;;36.40;78.10;;;;;;4986586;28;20708;-72
2022/06/02 10:04:58;;;;;;;8.02;1.90;;;38.70;74.50;;;;;;5019524;28;20051;-72
2022/06/02 10:08:02;;;;;;;8.30;2.38;;;39.90;72.10;;;;;;5012279;28;20037;-72
2022/06/02 10:11:20;;;;;;;10.60;1.98;;;39.40;73.80;;;;;;5029020;28;20049;-72
2022/06/02 10:14:56;;;;;;;7.75;2.05;;;41.30;71.20;;;;;;5046772;28;20399;-72
2022/06/02 10:18:05;;;;;;;5.07;2.03;;;42.40;70.50;;;;;;5050670;28;20040;-73
2022/06/02 10:21:31;;;;;;;6.63;1.88;;;41.90;68.20;;;;;;5050375;28;20051;-73
2022/06/02 10:24:35;;;;;;;6.63;1.80;;;40.90;68.20;;;;;;5031187;28;20056;-72
2022/06/02 10:28:17;;;;;;;6.72;2.10;;;40.30;72.30;;;;;;5050059;28;20036;-72
2022/06/02 10:31:26;;;;;;;8.57;2.00;;;40.70;69.30;;;;;;5050266;28;20048;-73
2022/06/02 10:34:45;;;;;;;12.35;1.98;;;40.30;69.20;;;;;;5050666;28;20048;-71
2022/06/02 10:38:09;;;;;;;5.53;1.60;;;37.90;69.60;;;;;;5050528;28;20040;-72
2022/06/02 10:41:41;;;;;;;7.35;1.83;;;39.70;68.90;;;;;;5044983;28;20392;-72
2022/06/02 10:44:57;;;;;;;5.97;1.52;;;38.80;68.60;;;;;;5049685;28;20507;-72
2022/06/02 10:48:46;;;;;;;5.50;1.85;;;40.60;66.00;;;;;;5050295;28;20514;-72
2022/06/02 10:52:12;;;;;;;5.03;1.70;;;40.70;66.80;;;;;;5030527;28;20068;-72
2022/06/02 10:55:36;;;;;;;5.18;1.55;;;37.70;66.80;;;;;;5030832;28;20048;-72
2022/06/02 10:59:30;;;;;;;5.68;1.48;;;39.30;67.40;;;;;;5046879;28;20051;-72
2022/06/02 11:03:05;;;;;;;4.65;1.58;;;41.30;60.70;;;;;;5029697;28;20059;-73
2022/06/02 11:06:47;;;;;;;5.07;1.48;;;42.60;58.20;;;;;;5050096;28;20053;-74
2022/06/02 11:10:40;;;;;;;4.63;1.30;;;43.50;59.40;;;;;;5050208;28;20506;-71
2022/06/02 11:14:05;;;;;;;5.45;2.25;;;43.90;60.80;;;;;;5050290;28;20064;-71
2022/06/02 11:17:46;;;;;;;5.43;1.48;;;43.90;60.80;;;;;;5049714;28;20043;-73
2022/06/02 11:21:30;;;;;;;5.28;1.80;;;41.30;59.40;;;;;;5048688;28;20048;-72
2022/06/02 11:25:06;;;;;;;9.63;1.90;;;39.70;61.00;;;;;;5050078;28;20047;-73
2022/06/02 11:28:34;;;;;;;7.75;1.92;;;38.50;64.40;;;;;;5050044;28;20052;-71
2022/06/02 11:31:47;;;;;;;7.15;1.80;;;39.90;63.50;;;;;;5030745;28;20479;-73
2022/06/02 11:35:25;;;;;;;4.80;1.52;;;41.60;63.00;;;;;;5049019;28;20052;-73
2022/06/02 11:38:59;;;;;;;6.03;1.75;;;42.50;61.70;;;;;;5049877;28;20056;-73
2022/06/02 11:42:26;;;;;;;4.95;1.60;;;43.00;61.40;;;;;;5050044;28;20400;-72
2022/06/02 11:45:34;;;;;;;5.18;1.98;;;39.60;62.40;;;;;;5030204;28;20053;-71
2022/06/02 11:49:03;;;;;;;5.13;1.55;;;39.20;65.00;;;;;;5049979;28;20056;-72
2022/06/02 11:52:20;;;;;;;10.05;1.90;;;38.70;66.60;;;;;;5049350;28;20448;-72
2022/06/02 11:55:44;;;;;;;5.13;1.75;;;38.80;66.40;;;;;;5049817;28;20518;-73
2022/06/02 11:59:25;;;;;;;5.22;1.92;;;39.70;65.00;;;;;;5050251;28;20043;-73
2022/06/02 12:02:54;;;;;;;5.03;1.60;;;38.40;65.50;;;;;;5049545;28;20056;-72
2022/06/02 12:06:15;;;;;;;5.43;1.58;;;36.70;68.30;;;;;;5049429;28;20048;-73
2022/06/02 12:09:33;;;;;;;5.45;1.98;;;38.30;66.60;;;;;;5049718;28;20416;-72
2022/06/02 12:12:49;;;;;;;5.45;2.03;;;39.30;68.60;;;;;;5049015;28;20044;-72
2022/06/02 12:16:11;;;;;;;6.40;2.08;;;40.00;67.10;;;;;;5050083;28;20036;-73
2022/06/02 12:19:52;;;;;;;7.90;2.10;;;37.60;66.90;;;;;;5052843;28;20301;-73
2022/06/02 12:23:48;;;;;;;10.52;2.53;;;34.40;69.90;;;;;;5052467;28;20420;-73
2022/06/02 12:27:01;;;;;;;5.57;2.08;;;35.20;70.40;;;;;;5031452;28;20048;-73
2022/06/02 12:30:27;;;;;;;7.82;1.70;;;35.50;69.90;;;;;;5053257;28;20075;-72
2022/06/02 12:33:57;;;;;;;8.82;2.20;;;36.30;71.40;;;;;;5050048;28;20052;-73
2022/06/02 12:37:18;;;;;;;4.60;2.13;;;36.70;68.40;;;;;;5057362;28;20048;-72
2022/06/02 12:40:40;;;;;;;5.20;2.00;;;37.50;69.30;;;;;;5052282;28;20044;-72
2022/06/02 12:43:54;;;;;;;3.90;1.67;;;38.40;69.60;;;;;;5033172;28;20048;-72
2022/06/02 12:47:20;;;;;;;8.70;2.20;;;37.10;68.90;;;;;;5050123;28;20056;-72
2022/06/02 12:50:43;;;;;;;7.30;2.20;;;37.00;69.70;;;;;;5052700;28;20048;-72
2022/06/02 12:54:14;;;;;;;6.40;2.05;;;37.30;69.30;;;;;;5052403;28;20391;-72
2022/06/02 12:57:56;;;;;;;6.65;1.83;;;34.50;70.90;;;;;;5033023;28;20037;-72
2022/06/02 13:01:30;;;;;;;4.60;1.90;;;34.00;73.60;;;;;;5032858;28;20053;-72
2022/06/02 13:04:44;;;;;;;9.15;2.70;;;35.30;71.90;;;;;;5047556;28;20047;-72
2022/06/02 13:08:28;;;;;;;5.43;2.13;;;37.20;70.20;;;;;;5052063;28;20403;-73
2022/06/02 13:11:41;;;;;;;10.05;2.50;;;37.70;70.60;;;;;;5052205;28;20404;-72
2022/06/02 13:15:15;;;;;;;9.77;2.40;;;34.90;71.40;;;;;;5032719;28;20451;-72
2022/06/02 13:18:44;;;;;;;9.05;2.10;;;35.30;72.50;;;;;;5040893;28;20044;-73
2022/06/02 13:22:22;;;;;;;5.45;2.45;;;35.00;73.30;;;;;;5052244;28;20052;-72
2022/06/02 13:25:38;;;;;;;8.07;2.38;;;34.10;73.10;;;;;;5051793;28;20044;-72
2022/06/02 13:28:51;;;;;;;6.35;2.38;;;34.60;74.10;;;;;;5052111;28;20119;-73
2022/06/02 13:32:40;;;;;;;68.00;7.55;;;35.30;73.40;;;;;;5050528;28;20052;-72
2022/06/02 13:36:21;;;;;;;6.38;2.40;;;35.90;73.60;;;;;;5051353;28;20052;-72
2022/06/02 13:39:27;;;;;;;7.20;2.17;;;35.90;73.80;;;;;;5050944;28;20039;-72
2022/06/02 13:42:51;;;;;;;7.47;2.13;;;36.00;72.10;;;;;;5051846;28;20411;-72
2022/06/02 13:46:13;;;;;;;6.88;1.90;;;35.70;71.30;;;;;;5031607;28;20048;-72
2022/06/02 13:49:41;;;;;;;6.53;2.00;;;35.90;71.40;;;;;;5051098;28;20388;-73
2022/06/02 13:53:13;;;;;;;4.70;2.03;;;35.40;71.50;;;;;;5051496;28;20431;-72
2022/06/02 14:00:13;;;;;;;6.57;2.45;;;36.00;71.60;;;;;;5051765;28;20044;-72
2022/06/02 14:03:30;;;;;;;11.00;2.72;;;35.00;73.20;;;;;;5051394;28;20071;-72
2022/06/02 14:07:15;;;;;;;12.90;2.63;;;34.90;74.70;;;;;;5047112;28;20496;-72
2022/06/02 14:10:42;;;;;;;9.00;2.50;;;33.70;74.50;;;;;;4998441;28;20056;-73
2022/06/02 14:14:07;;;;;;;5.68;2.35;;;34.00;74.20;;;;;;5050965;28;20565;-73
2022/06/02 14:17:33;;;;;;;10.35;2.45;;;34.20;74.70;;;;;;5051238;28;20051;-72
2022/06/02 14:20:43;;;;;;;8.48;2.10;;;34.20;74.90;;;;;;5050326;28;20058;-73
2022/06/02 14:24:12;;;;;;;7.17;2.50;;;34.20;73.10;;;;;;5050848;28;20392;-73
2022/06/02 14:27:25;;;;;;;6.95;2.33;;;34.40;72.90;;;;;;5048692;28;20052;-73
2022/06/02 14:30:45;;;;;;;5.38;2.28;;;34.40;74.30;;;;;;5051296;28;20388;-72
2022/06/02 14:34:14;;;;;;;6.17;2.07;;;33.60;75.30;;;;;;5050403;28;20036;-72
2022/06/02 14:37:18;;;;;;;9.18;1.95;;;33.10;74.70;;;;;;5050201;28;20633;-72
2022/06/02 14:40:37;;;;;;;9.50;2.30;;;33.00;73.30;;;;;;5051125;28;20043;-72
2022/06/02 14:44:08;;;;;;;6.78;2.63;;;33.50;74.90;;;;;;5050877;28;20036;-72
2022/06/02 14:47:42;;;;;;;3.90;2.08;;;33.50;74.20;;;;;;5049664;28;20044;-72
2022/06/02 14:51:10;;;;;;;3.80;1.80;;;33.80;74.10;;;;;;5050558;28;20048;-73
2022/06/02 14:54:28;;;;;;;8.73;2.67;;;33.60;74.10;;;;;;5049677;28;20040;-72
2022/06/02 14:57:45;;;;;;;10.68;2.60;;;33.60;74.80;;;;;;5037883;28;20055;-72
2022/06/02 15:01:08;;;;;;;10.77;2.40;;;33.40;73.90;;;;;;5050042;28;20048;-72
2022/06/02 15:04:33;;;;;;;6.97;2.35;;;33.50;73.20;;;;;;5049955;28;20040;-73
2022/06/02 15:08:06;;;;;;;5.00;2.17;;;33.60;74.40;;;;;;5030773;28;20068;-73
2022/06/02 15:11:16;;;;;;;12.45;2.75;;;33.70;72.90;;;;;;5051065;28;20044;-73
2022/06/02 15:14:46;;;;;;;5.87;2.03;;;33.60;74.40;;;;;;5049883;28;20486;-72
2022/06/02 15:18:18;;;;;;;6.18;2.03;;;33.00;73.30;;;;;;5049965;28;20044;-73
2022/06/02 15:21:53;;;;;;;4.68;2.00;;;33.00;72.60;;;;;;5050075;28;20052;-73
2022/06/02 15:25:16;;;;;;;12.57;3.53;;;33.30;71.80;;;;;;5050611;28;20052;-73
2022/06/02 15:28:41;;;;;;;7.22;1.88;;;33.50;73.40;;;;;;5049797;28;20048;-73
2022/06/02 15:32:18;;;;;;;8.27;2.17;;;33.70;72.40;;;;;;5050014;28;20044;-72
2022/06/02 15:35:48;;;;;;;6.82;2.10;;;33.60;72.90;;;;;;5049497;28;20055;-72
2022/06/02 15:39:27;;;;;;;6.95;2.33;;;33.20;72.50;;;;;;5050862;28;20500;-72
2022/06/02 15:42:45;;;;;;;4.47;1.77;;;33.20;71.70;;;;;;5049792;28;20044;-72
2022/06/02 15:46:08;;;;;;;5.75;2.05;;;33.20;73.30;;;;;;5049995;28;20060;-73
2022/06/02 15:49:54;;;;;;;24.70;3.63;;;32.80;73.40;;;;;;5049836;28;20490;-72
2022/06/02 15:53:24;;;;;;;3.30;1.63;;;32.50;71.20;;;;;;5015723;28;20499;-72
2022/06/02 15:56:58;;;;;;;4.53;2.13;;;32.60;72.70;;;;;;5053999;28;20040;-72
2022/06/02 16:00:19;;;;;;;9.52;2.25;;;32.80;72.40;;;;;;5054399;28;20039;-73
2022/06/02 16:03:29;;;;;;;7.38;2.22;;;32.70;73.20;;;;;;5053551;28;20584;-72
2022/06/02 16:06:51;;;;;;;6.90;2.28;;;32.50;73.50;;;;;;5052723;28;20063;-72
2022/06/02 16:13:55;;;;;;;8.57;1.90;;;32.50;71.40;;;;;;4981581;28;20064;-72
2022/06/02 16:17:32;;;;;;;6.65;2.00;;;32.50;73.70;;;;;;5050717;28;20367;-72
2022/06/02 16:21:00;;;;;;;6.82;2.20;;;32.40;74.50;;;;;;5045804;28;20473;-72
2022/06/02 16:24:22;;;;;;;5.93;2.17;;;32.40;74.70;;;;;;5053415;28;20072;-73
2022/06/02 16:27:48;;;;;;;4.70;2.38;;;32.20;74.10;;;;;;5052971;28;20047;-72
2022/06/02 16:31:07;;;;;;;5.65;2.35;;;32.10;73.50;;;;;;5053210;28;20043;-72
2022/06/02 16:34:39;;;;;;;6.90;2.65;;;32.30;73.20;;;;;;5052792;28;20060;-72
2022/06/02 16:37:57;;;;;;;4.05;2.17;;;32.30;73.10;;;;;;5052320;28;20040;-73
2022/06/02 16:41:29;;;;;;;7.78;2.42;;;32.30;74.30;;;;;;5038306;28;20061;-72
2022/06/02 16:44:55;;;;;;;8.25;2.47;;;32.10;75.10;;;;;;5052587;28;20054;-72
2022/06/02 16:48:14;;;;;;;6.68;2.58;;;32.00;76.50;;;;;;5046575;28;20044;-72
2022/06/02 16:51:48;;;;;;;6.00;2.50;;;31.80;78.00;;;;;;5051987;28;20048;-72
2022/06/02 16:55:42;;;;;;;8.52;2.90;;;31.70;79.80;;;;;;5053068;28;20044;-72
2022/06/02 16:58:52;;;;;;;10.18;2.80;;;31.80;79.80;;;;;;5052185;28;20044;-71
2022/06/02 17:02:26;;;;;;;7.28;2.75;;;31.80;79.60;;;;;;5050593;28;20048;-71
2022/06/02 17:06:08;;;;;;;7.03;2.65;;;31.80;80.00;;;;;;5051133;28;20052;-72
2022/06/02 17:09:35;;;;;;;10.15;3.33;;;31.90;80.50;;;;;;5051091;28;20391;-72
2022/06/02 17:12:54;;;;;;;7.10;3.30;;;31.60;80.40;;;;;;5052174;28;20036;-71
2022/06/02 17:16:32;;;;;;;9.10;3.15;;;31.70;81.40;;;;;;5051176;28;20056;-72
2022/06/02 17:20:05;;;;;;;9.30;2.63;;;31.50;82.20;;;;;;5050895;28;20063;-71
2022/06/02 17:23:28;;;;;;;12.20;3.22;;;31.10;83.30;;;;;;5050675;28;20119;-71
2022/06/02 17:27:00;;;;;;;9.38;2.97;;;31.00;85.20;;;;;;5050309;28;20048;-72
2022/06/02 17:30:25;;;;;;;7.35;3.03;;;31.10;86.70;;;;;;5051572;28;20419;-71
2022/06/02 17:33:47;;;;;;;9.90;3.65;;;31.10;86.70;;;;;;5046579;28;20430;-70
2022/06/02 17:36:58;;;;;;;6.47;3.30;;;31.10;87.90;;;;;;5049732;28;20064;-70
2022/06/02 17:40:18;;;;;;;15.02;3.95;;;30.90;89.10;;;;;;5050908;28;20304;-72
2022/06/02 17:43:38;;;;;;;16.85;4.35;;;30.80;90.20;;;;;;5051347;28;20052;-71
2022/06/02 17:47:19;;;;;;;11.90;3.78;;;30.60;90.60;;;;;;5049950;28;20079;-70
2022/06/02 17:50:55;;;;;;;13.10;4.63;;;30.50;91.50;;;;;;5050079;28;20067;-71
2022/06/02 17:54:36;;;;;;;13.25;4.13;;;30.40;92.10;;;;;;5049812;28;20047;-71
2022/06/02 17:57:56;;;;;;;9.82;3.97;;;30.30;92.60;;;;;;5050421;28;20048;-72
2022/06/02 18:01:29;;;;;;;9.25;3.78;;;30.10;93.10;;;;;;5030834;28;20048;-72
2022/06/02 18:05:10;;;;;;;13.68;5.63;;;30.00;93.50;;;;;;5049295;28;20048;-72